24MA weather

Barre-Bassett Heliport
Barre, Massachusetts, United States

Public forecast

Using degrees Fahrenheit for public forecast. Weather courtesy of forecast.io.

METAR (pilot weather report)

Closest report is Orange Municipal Airport, 11.7 nm (21.7 km) NW. Retrieved 2019/09/23 11:52 UTC (13 minutes ago):

KORE 231152Z AUTO 00000KT 8SM CLR 18/16 A2988 RMK AO2 SLP116 T01830161 10183 20150 56006

TAF (pilot weather forecast)

Closest forecast is Worcester Regional Airport, 14.1 nm (26.1 km) SE. Retrieved 2019/09/23 12:22 UTC (0 seconds ago):

TAF KORH 231120Z 2312/2412 22010KT P6SM FEW250 FM232300 21014KT P6SM VCSH OVC100 FM240200 24010KT 6SM -RA BR OVC070 FM240300 25008KT 3SM -RA BR OVC040 FM240500 26008KT 6SM -RA BR OVC060 FM240700 27006KT P6SM BKN100